sensor_id;sensor_type;location;lat;lon;timestamp;P1;durP1;ratioP1;P2;durP2;ratioP2
47804;SDS011;33568;45.286;9.900;2023-10-08T00:01:35;74.07;;;59.30;;
47804;SDS011;33568;45.286;9.900;2023-10-08T00:04:23;58.38;;;46.03;;
47804;SDS011;33568;45.286;9.900;2023-10-08T00:06:50;57.45;;;48.53;;
47804;SDS011;33568;45.286;9.900;2023-10-08T00:09:18;51.80;;;43.35;;
47804;SDS011;33568;45.286;9.900;2023-10-08T00:12:05;62.47;;;48.80;;
47804;SDS011;33568;45.286;9.900;2023-10-08T00:14:50;73.53;;;58.58;;
47804;SDS011;33568;45.286;9.900;2023-10-08T00:20:04;50.00;;;44.60;;
47804;SDS011;33568;45.286;9.900;2023-10-08T00:22:31;51.35;;;43.45;;
47804;SDS011;33568;45.286;9.900;2023-10-08T00:25:01;47.80;;;42.55;;
47804;SDS011;33568;45.286;9.900;2023-10-08T00:30:17;54.83;;;46.92;;
47804;SDS011;33568;45.286;9.900;2023-10-08T00:32:46;61.45;;;50.63;;
47804;SDS011;33568;45.286;9.900;2023-10-08T00:35:12;56.40;;;48.20;;
47804;SDS011;33568;45.286;9.900;2023-10-08T00:37:39;62.58;;;48.58;;
47804;SDS011;33568;45.286;9.900;2023-10-08T00:40:25;58.63;;;51.35;;
47804;SDS011;33568;45.286;9.900;2023-10-08T00:43:01;56.78;;;47.40;;
47804;SDS011;33568;45.286;9.900;2023-10-08T00:45:29;54.58;;;48.55;;
47804;SDS011;33568;45.286;9.900;2023-10-08T00:47:56;61.47;;;50.70;;
47804;SDS011;33568;45.286;9.900;2023-10-08T00:50:23;59.45;;;50.08;;
47804;SDS011;33568;45.286;9.900;2023-10-08T00:52:57;53.17;;;46.78;;
47804;SDS011;33568;45.286;9.900;2023-10-08T00:58:37;55.17;;;47.83;;
47804;SDS011;33568;45.286;9.900;2023-10-08T01:01:04;58.75;;;47.47;;
47804;SDS011;33568;45.286;9.900;2023-10-08T01:06:57;53.47;;;47.60;;
47804;SDS011;33568;45.286;9.900;2023-10-08T01:09:43;58.40;;;48.72;;
47804;SDS011;33568;45.286;9.900;2023-10-08T01:18:44;54.15;;;46.67;;
47804;SDS011;33568;45.286;9.900;2023-10-08T01:21:16;53.67;;;46.45;;
47804;SDS011;33568;45.286;9.900;2023-10-08T01:24:00;64.90;;;49.35;;
47804;SDS011;33568;45.286;9.900;2023-10-08T01:26:30;52.33;;;46.10;;
47804;SDS011;33568;45.286;9.900;2023-10-08T01:31:46;61.40;;;47.50;;
47804;SDS011;33568;45.286;9.900;2023-10-08T01:34:32;53.22;;;46.10;;
47804;SDS011;33568;45.286;9.900;2023-10-08T01:37:20;49.35;;;43.95;;
47804;SDS011;33568;45.286;9.900;2023-10-08T01:43:09;60.28;;;49.80;;
47804;SDS011;33568;45.286;9.900;2023-10-08T01:45:57;60.53;;;51.90;;
47804;SDS011;33568;45.286;9.900;2023-10-08T01:48:42;53.78;;;46.92;;
47804;SDS011;33568;45.286;9.900;2023-10-08T01:51:10;55.58;;;46.97;;
47804;SDS011;33568;45.286;9.900;2023-10-08T01:53:51;50.83;;;45.28;;
47804;SDS011;33568;45.286;9.900;2023-10-08T01:56:20;61.25;;;49.30;;
47804;SDS011;33568;45.286;9.900;2023-10-08T02:01:37;52.80;;;44.97;;
47804;SDS011;33568;45.286;9.900;2023-10-08T02:04:05;53.08;;;46.60;;
47804;SDS011;33568;45.286;9.900;2023-10-08T02:06:35;53.03;;;46.65;;
47804;SDS011;33568;45.286;9.900;2023-10-08T02:11:52;56.92;;;50.92;;
47804;SDS011;33568;45.286;9.900;2023-10-08T02:14:20;76.07;;;54.53;;
47804;SDS011;33568;45.286;9.900;2023-10-08T02:16:51;67.15;;;58.42;;
47804;SDS011;33568;45.286;9.900;2023-10-08T02:19:40;66.25;;;57.33;;
47804;SDS011;33568;45.286;9.900;2023-10-08T02:22:07;68.68;;;57.47;;
47804;SDS011;33568;45.286;9.900;2023-10-08T02:24:36;52.10;;;46.45;;
47804;SDS011;33568;45.286;9.900;2023-10-08T02:30:07;59.92;;;50.28;;
47804;SDS011;33568;45.286;9.900;2023-10-08T02:32:36;66.47;;;46.40;;
47804;SDS011;33568;45.286;9.900;2023-10-08T02:35:03;51.75;;;45.58;;
47804;SDS011;33568;45.286;9.900;2023-10-08T02:38:08;62.88;;;53.25;;
47804;SDS011;33568;45.286;9.900;2023-10-08T02:40:54;65.75;;;51.47;;
47804;SDS011;33568;45.286;9.900;2023-10-08T02:43:22;63.40;;;52.15;;
47804;SDS011;33568;45.286;9.900;2023-10-08T02:45:49;51.80;;;45.28;;
47804;SDS011;33568;45.286;9.900;2023-10-08T02:48:16;58.58;;;45.63;;
47804;SDS011;33568;45.286;9.900;2023-10-08T02:53:47;58.40;;;48.53;;
47804;SDS011;33568;45.286;9.900;2023-10-08T02:56:32;54.25;;;45.55;;
47804;SDS011;33568;45.286;9.900;2023-10-08T02:59:17;54.25;;;44.20;;
47804;SDS011;33568;45.286;9.900;2023-10-08T03:01:47;53.83;;;45.40;;
47804;SDS011;33568;45.286;9.900;2023-10-08T03:04:23;48.00;;;41.10;;
47804;SDS011;33568;45.286;9.900;2023-10-08T03:06:49;45.85;;;40.40;;
47804;SDS011;33568;45.286;9.900;2023-10-08T03:09:17;48.78;;;41.95;;
47804;SDS011;33568;45.286;9.900;2023-10-08T03:14:36;50.13;;;43.30;;
47804;SDS011;33568;45.286;9.900;2023-10-08T03:17:15;43.53;;;38.70;;
47804;SDS011;33568;45.286;9.900;2023-10-08T03:20:04;47.95;;;38.35;;
47804;SDS011;33568;45.286;9.900;2023-10-08T03:23:09;56.40;;;41.25;;
47804;SDS011;33568;45.286;9.900;2023-10-08T03:25:56;43.97;;;38.22;;
47804;SDS011;33568;45.286;9.900;2023-10-08T03:31:10;41.70;;;37.40;;
47804;SDS011;33568;45.286;9.900;2023-10-08T03:33:42;47.08;;;41.25;;
47804;SDS011;33568;45.286;9.900;2023-10-08T03:36:14;43.90;;;37.55;;
47804;SDS011;33568;45.286;9.900;2023-10-08T03:38:47;41.25;;;36.78;;
47804;SDS011;33568;45.286;9.900;2023-10-08T03:44:06;40.72;;;36.10;;
47804;SDS011;33568;45.286;9.900;2023-10-08T03:46:39;37.42;;;33.53;;
47804;SDS011;33568;45.286;9.900;2023-10-08T03:49:09;38.72;;;33.03;;
47804;SDS011;33568;45.286;9.900;2023-10-08T03:52:03;40.42;;;35.38;;
47804;SDS011;33568;45.286;9.900;2023-10-08T03:54:51;45.55;;;40.53;;
47804;SDS011;33568;45.286;9.900;2023-10-08T03:57:46;43.25;;;37.05;;
47804;SDS011;33568;45.286;9.900;2023-10-08T04:00:22;35.67;;;32.23;;
47804;SDS011;33568;45.286;9.900;2023-10-08T04:02:57;45.97;;;39.85;;
47804;SDS011;33568;45.286;9.900;2023-10-08T04:06:01;35.55;;;31.33;;
47804;SDS011;33568;45.286;9.900;2023-10-08T04:08:55;37.42;;;33.63;;
47804;SDS011;33568;45.286;9.900;2023-10-08T04:11:40;64.85;;;43.13;;
47804;SDS011;33568;45.286;9.900;2023-10-08T04:14:38;69.15;;;41.88;;
47804;SDS011;33568;45.286;9.900;2023-10-08T04:17:04;48.35;;;37.15;;
47804;SDS011;33568;45.286;9.900;2023-10-08T04:19:34;50.47;;;42.90;;
47804;SDS011;33568;45.286;9.900;2023-10-08T04:22:01;34.55;;;30.65;;
47804;SDS011;33568;45.286;9.900;2023-10-08T04:24:28;33.67;;;30.15;;
47804;SDS011;33568;45.286;9.900;2023-10-08T04:27:00;39.85;;;32.67;;
47804;SDS011;33568;45.286;9.900;2023-10-08T04:29:31;39.28;;;33.22;;
47804;SDS011;33568;45.286;9.900;2023-10-08T04:32:16;40.80;;;36.40;;
47804;SDS011;33568;45.286;9.900;2023-10-08T04:34:50;34.88;;;31.27;;
47804;SDS011;33568;45.286;9.900;2023-10-08T04:37:59;35.65;;;31.77;;
47804;SDS011;33568;45.286;9.900;2023-10-08T04:40:25;47.25;;;39.70;;
47804;SDS011;33568;45.286;9.900;2023-10-08T04:42:51;47.55;;;40.85;;
47804;SDS011;33568;45.286;9.900;2023-10-08T04:45:20;35.60;;;30.70;;
47804;SDS011;33568;45.286;9.900;2023-10-08T04:48:05;36.35;;;31.83;;
47804;SDS011;33568;45.286;9.900;2023-10-08T04:50:35;49.95;;;41.60;;
47804;SDS011;33568;45.286;9.900;2023-10-08T04:53:03;47.13;;;42.28;;
47804;SDS011;33568;45.286;9.900;2023-10-08T04:55:34;35.55;;;31.60;;
47804;SDS011;33568;45.286;9.900;2023-10-08T04:58:01;39.30;;;32.88;;
47804;SDS011;33568;45.286;9.900;2023-10-08T05:03:10;52.50;;;44.63;;
47804;SDS011;33568;45.286;9.900;2023-10-08T05:05:40;39.97;;;33.35;;
47804;SDS011;33568;45.286;9.900;2023-10-08T05:08:34;46.40;;;34.25;;
47804;SDS011;33568;45.286;9.900;2023-10-08T05:14:20;57.20;;;44.80;;
47804;SDS011;33568;45.286;9.900;2023-10-08T05:19:44;52.85;;;46.10;;
47804;SDS011;33568;45.286;9.900;2023-10-08T05:22:15;39.78;;;34.65;;
47804;SDS011;33568;45.286;9.900;2023-10-08T05:24:54;50.28;;;41.38;;
47804;SDS011;33568;45.286;9.900;2023-10-08T05:27:42;52.05;;;41.75;;
47804;SDS011;33568;45.286;9.900;2023-10-08T05:30:16;57.80;;;46.35;;
47804;SDS011;33568;45.286;9.900;2023-10-08T05:33:21;42.67;;;34.65;;
47804;SDS011;33568;45.286;9.900;2023-10-08T05:36:09;54.88;;;40.33;;
47804;SDS011;33568;45.286;9.900;2023-10-08T05:38:44;59.40;;;45.22;;
47804;SDS011;33568;45.286;9.900;2023-10-08T05:41:27;44.17;;;35.45;;
47804;SDS011;33568;45.286;9.900;2023-10-08T05:43:54;48.47;;;38.75;;
47804;SDS011;33568;45.286;9.900;2023-10-08T05:46:39;42.05;;;34.08;;
47804;SDS011;33568;45.286;9.900;2023-10-08T05:49:14;44.13;;;35.83;;
47804;SDS011;33568;45.286;9.900;2023-10-08T05:51:52;43.58;;;34.97;;
47804;SDS011;33568;45.286;9.900;2023-10-08T05:54:37;37.80;;;33.10;;
47804;SDS011;33568;45.286;9.900;2023-10-08T05:57:23;49.92;;;34.60;;
47804;SDS011;33568;45.286;9.900;2023-10-08T06:00:23;56.55;;;41.50;;
47804;SDS011;33568;45.286;9.900;2023-10-08T06:03:12;55.67;;;39.70;;
47804;SDS011;33568;45.286;9.900;2023-10-08T06:06:01;49.50;;;37.58;;
47804;SDS011;33568;45.286;9.900;2023-10-08T06:08:39;53.22;;;38.03;;
47804;SDS011;33568;45.286;9.900;2023-10-08T06:11:45;50.88;;;38.70;;
47804;SDS011;33568;45.286;9.900;2023-10-08T06:14:31;51.45;;;41.15;;
47804;SDS011;33568;45.286;9.900;2023-10-08T06:17:16;58.22;;;39.72;;
47804;SDS011;33568;45.286;9.900;2023-10-08T06:23:17;52.92;;;39.65;;
47804;SDS011;33568;45.286;9.900;2023-10-08T06:26:03;48.15;;;40.42;;
47804;SDS011;33568;45.286;9.900;2023-10-08T06:28:36;51.38;;;39.80;;
47804;SDS011;33568;45.286;9.900;2023-10-08T06:31:07;47.97;;;37.28;;
47804;SDS011;33568;45.286;9.900;2023-10-08T06:33:44;40.55;;;34.75;;
47804;SDS011;33568;45.286;9.900;2023-10-08T06:36:11;46.35;;;41.13;;
47804;SDS011;33568;45.286;9.900;2023-10-08T06:38:37;48.20;;;38.65;;
47804;SDS011;33568;45.286;9.900;2023-10-08T06:43:41;46.78;;;41.08;;
47804;SDS011;33568;45.286;9.900;2023-10-08T06:49:14;50.70;;;39.45;;
47804;SDS011;33568;45.286;9.900;2023-10-08T06:51:59;45.72;;;39.55;;
47804;SDS011;33568;45.286;9.900;2023-10-08T06:57:31;49.92;;;40.90;;
47804;SDS011;33568;45.286;9.900;2023-10-08T06:59:58;56.63;;;41.00;;
47804;SDS011;33568;45.286;9.900;2023-10-08T07:03:02;49.65;;;41.33;;
47804;SDS011;33568;45.286;9.900;2023-10-08T07:05:29;48.85;;;39.15;;
47804;SDS011;33568;45.286;9.900;2023-10-08T07:08:02;45.75;;;37.15;;
47804;SDS011;33568;45.286;9.900;2023-10-08T07:10:32;50.00;;;40.00;;
47804;SDS011;33568;45.286;9.900;2023-10-08T07:13:02;45.65;;;37.65;;
47804;SDS011;33568;45.286;9.900;2023-10-08T07:15:53;49.45;;;36.05;;
47804;SDS011;33568;45.286;9.900;2023-10-08T07:18:43;48.08;;;40.10;;
47804;SDS011;33568;45.286;9.900;2023-10-08T07:21:29;57.88;;;40.15;;
47804;SDS011;33568;45.286;9.900;2023-10-08T07:24:05;45.88;;;37.95;;
47804;SDS011;33568;45.286;9.900;2023-10-08T07:26:35;47.22;;;39.42;;
47804;SDS011;33568;45.286;9.900;2023-10-08T07:29:02;49.38;;;39.15;;
47804;SDS011;33568;45.286;9.900;2023-10-08T07:31:52;46.05;;;40.00;;
47804;SDS011;33568;45.286;9.900;2023-10-08T07:34:19;50.92;;;40.70;;
47804;SDS011;33568;45.286;9.900;2023-10-08T07:36:49;44.78;;;38.22;;
47804;SDS011;33568;45.286;9.900;2023-10-08T07:39:16;48.00;;;41.13;;
47804;SDS011;33568;45.286;9.900;2023-10-08T07:42:00;44.15;;;37.15;;
47804;SDS011;33568;45.286;9.900;2023-10-08T07:44:48;53.42;;;36.65;;
47804;SDS011;33568;45.286;9.900;2023-10-08T07:48:11;48.75;;;35.15;;
47804;SDS011;33568;45.286;9.900;2023-10-08T07:50:44;39.92;;;34.75;;
47804;SDS011;33568;45.286;9.900;2023-10-08T07:56:05;40.63;;;30.10;;
47804;SDS011;33568;45.286;9.900;2023-10-08T07:58:35;39.72;;;31.90;;
47804;SDS011;33568;45.286;9.900;2023-10-08T08:01:23;37.78;;;33.17;;
47804;SDS011;33568;45.286;9.900;2023-10-08T08:03:53;43.88;;;32.55;;
47804;SDS011;33568;45.286;9.900;2023-10-08T08:06:37;33.67;;;29.17;;
47804;SDS011;33568;45.286;9.900;2023-10-08T08:09:22;39.85;;;29.80;;
47804;SDS011;33568;45.286;9.900;2023-10-08T08:11:49;36.20;;;28.75;;
47804;SDS011;33568;45.286;9.900;2023-10-08T08:14:37;35.67;;;30.05;;
47804;SDS011;33568;45.286;9.900;2023-10-08T08:17:07;35.40;;;26.92;;
47804;SDS011;33568;45.286;9.900;2023-10-08T08:19:43;32.00;;;25.65;;
47804;SDS011;33568;45.286;9.900;2023-10-08T08:22:13;35.83;;;26.00;;
47804;SDS011;33568;45.286;9.900;2023-10-08T08:24:56;30.40;;;25.50;;
47804;SDS011;33568;45.286;9.900;2023-10-08T08:27:42;32.20;;;24.60;;
47804;SDS011;33568;45.286;9.900;2023-10-08T08:30:14;28.70;;;24.23;;
47804;SDS011;33568;45.286;9.900;2023-10-08T08:32:59;31.63;;;23.38;;
47804;SDS011;33568;45.286;9.900;2023-10-08T08:38:13;32.03;;;21.85;;
47804;SDS011;33568;45.286;9.900;2023-10-08T08:40:39;30.80;;;20.60;;
47804;SDS011;33568;45.286;9.900;2023-10-08T08:43:24;27.55;;;19.27;;
47804;SDS011;33568;45.286;9.900;2023-10-08T08:48:42;23.45;;;16.90;;
47804;SDS011;33568;45.286;9.900;2023-10-08T08:51:11;26.15;;;17.30;;
47804;SDS011;33568;45.286;9.900;2023-10-08T08:53:39;27.73;;;17.10;;
47804;SDS011;33568;45.286;9.900;2023-10-08T08:56:07;19.70;;;15.48;;
47804;SDS011;33568;45.286;9.900;2023-10-08T08:58:38;22.33;;;14.90;;
47804;SDS011;33568;45.286;9.900;2023-10-08T09:01:07;21.33;;;15.15;;
47804;SDS011;33568;45.286;9.900;2023-10-08T09:03:38;18.65;;;14.93;;
47804;SDS011;33568;45.286;9.900;2023-10-08T09:06:05;23.90;;;14.85;;
47804;SDS011;33568;45.286;9.900;2023-10-08T09:11:21;29.25;;;13.75;;
47804;SDS011;33568;45.286;9.900;2023-10-08T09:13:47;21.98;;;11.75;;
47804;SDS011;33568;45.286;9.900;2023-10-08T09:16:15;20.08;;;12.05;;
47804;SDS011;33568;45.286;9.900;2023-10-08T09:18:43;26.08;;;11.95;;
47804;SDS011;33568;45.286;9.900;2023-10-08T09:21:18;21.85;;;11.35;;
47804;SDS011;33568;45.286;9.900;2023-10-08T09:24:21;25.85;;;11.63;;
47804;SDS011;33568;45.286;9.900;2023-10-08T09:27:07;25.70;;;11.63;;
47804;SDS011;33568;45.286;9.900;2023-10-08T09:29:40;20.08;;;10.73;;
47804;SDS011;33568;45.286;9.900;2023-10-08T09:32:11;21.35;;;11.15;;
47804;SDS011;33568;45.286;9.900;2023-10-08T09:34:56;21.65;;;11.57;;
47804;SDS011;33568;45.286;9.900;2023-10-08T09:37:23;22.95;;;12.52;;
47804;SDS011;33568;45.286;9.900;2023-10-08T09:39:50;32.45;;;14.20;;
47804;SDS011;33568;45.286;9.900;2023-10-08T09:42:37;23.13;;;13.27;;
47804;SDS011;33568;45.286;9.900;2023-10-08T09:45:05;22.73;;;13.88;;
47804;SDS011;33568;45.286;9.900;2023-10-08T09:47:52;24.65;;;14.02;;
47804;SDS011;33568;45.286;9.900;2023-10-08T09:50:41;18.92;;;13.27;;
47804;SDS011;33568;45.286;9.900;2023-10-08T09:53:10;20.15;;;13.77;;
47804;SDS011;33568;45.286;9.900;2023-10-08T09:55:55;26.37;;;14.83;;
47804;SDS011;33568;45.286;9.900;2023-10-08T09:58:22;31.02;;;14.95;;
47804;SDS011;33568;45.286;9.900;2023-10-08T10:00:50;21.05;;;13.40;;
47804;SDS011;33568;45.286;9.900;2023-10-08T10:03:20;26.73;;;14.07;;
47804;SDS011;33568;45.286;9.900;2023-10-08T10:06:26;23.42;;;13.43;;
47804;SDS011;33568;45.286;9.900;2023-10-08T10:09:19;24.10;;;13.68;;
47804;SDS011;33568;45.286;9.900;2023-10-08T10:12:06;18.75;;;14.15;;
47804;SDS011;33568;45.286;9.900;2023-10-08T10:14:46;23.77;;;13.93;;
47804;SDS011;33568;45.286;9.900;2023-10-08T10:17:14;18.17;;;15.00;;
47804;SDS011;33568;45.286;9.900;2023-10-08T10:20:00;24.33;;;16.27;;
47804;SDS011;33568;45.286;9.900;2023-10-08T10:22:45;24.52;;;13.65;;
47804;SDS011;33568;45.286;9.900;2023-10-08T10:25:34;23.02;;;15.23;;
47804;SDS011;33568;45.286;9.900;2023-10-08T10:30:50;18.85;;;15.55;;
47804;SDS011;33568;45.286;9.900;2023-10-08T10:33:35;28.13;;;14.82;;
47804;SDS011;33568;45.286;9.900;2023-10-08T10:36:05;21.63;;;13.93;;
47804;SDS011;33568;45.286;9.900;2023-10-08T10:38:34;20.48;;;14.90;;
47804;SDS011;33568;45.286;9.900;2023-10-08T10:41:03;21.48;;;14.93;;
47804;SDS011;33568;45.286;9.900;2023-10-08T10:43:34;24.73;;;15.35;;
47804;SDS011;33568;45.286;9.900;2023-10-08T10:46:05;24.73;;;15.85;;
47804;SDS011;33568;45.286;9.900;2023-10-08T10:48:56;23.27;;;15.70;;
47804;SDS011;33568;45.286;9.900;2023-10-08T10:51:43;29.77;;;14.52;;
47804;SDS011;33568;45.286;9.900;2023-10-08T10:54:12;22.67;;;16.13;;
47804;SDS011;33568;45.286;9.900;2023-10-08T10:57:05;26.50;;;15.68;;
47804;SDS011;33568;45.286;9.900;2023-10-08T10:59:42;31.60;;;16.50;;
47804;SDS011;33568;45.286;9.900;2023-10-08T11:04:56;24.58;;;14.93;;
47804;SDS011;33568;45.286;9.900;2023-10-08T11:07:41;18.67;;;15.32;;
47804;SDS011;33568;45.286;9.900;2023-10-08T11:10:28;29.83;;;16.83;;
47804;SDS011;33568;45.286;9.900;2023-10-08T11:13:16;25.20;;;15.60;;
47804;SDS011;33568;45.286;9.900;2023-10-08T11:15:47;23.48;;;14.95;;
47804;SDS011;33568;45.286;9.900;2023-10-08T11:18:35;22.73;;;16.35;;
47804;SDS011;33568;45.286;9.900;2023-10-08T11:21:25;21.60;;;15.93;;
47804;SDS011;33568;45.286;9.900;2023-10-08T11:23:57;21.75;;;15.98;;
47804;SDS011;33568;45.286;9.900;2023-10-08T11:26:43;28.08;;;16.42;;
47804;SDS011;33568;45.286;9.900;2023-10-08T11:29:30;25.73;;;15.80;;
47804;SDS011;33568;45.286;9.900;2023-10-08T11:31:56;28.00;;;16.73;;
47804;SDS011;33568;45.286;9.900;2023-10-08T11:34:41;24.20;;;17.15;;
47804;SDS011;33568;45.286;9.900;2023-10-08T11:37:08;18.42;;;15.57;;
47804;SDS011;33568;45.286;9.900;2023-10-08T11:40:04;24.20;;;15.73;;
47804;SDS011;33568;45.286;9.900;2023-10-08T11:43:01;27.67;;;14.38;;
47804;SDS011;33568;45.286;9.900;2023-10-08T11:45:29;31.40;;;16.05;;
47804;SDS011;33568;45.286;9.900;2023-10-08T11:48:14;17.58;;;13.85;;
47804;SDS011;33568;45.286;9.900;2023-10-08T11:50:48;21.38;;;16.85;;
47804;SDS011;33568;45.286;9.900;2023-10-08T11:53:16;22.00;;;16.13;;
47804;SDS011;33568;45.286;9.900;2023-10-08T11:56:03;24.60;;;15.32;;
47804;SDS011;33568;45.286;9.900;2023-10-08T11:58:41;25.90;;;13.50;;
47804;SDS011;33568;45.286;9.900;2023-10-08T12:04:12;20.33;;;14.05;;
47804;SDS011;33568;45.286;9.900;2023-10-08T12:06:41;17.42;;;13.55;;
47804;SDS011;33568;45.286;9.900;2023-10-08T12:12:04;22.50;;;12.55;;
47804;SDS011;33568;45.286;9.900;2023-10-08T12:14:35;21.20;;;10.93;;
47804;SDS011;33568;45.286;9.900;2023-10-08T12:17:03;21.00;;;9.95;;
47804;SDS011;33568;45.286;9.900;2023-10-08T12:19:37;19.67;;;11.30;;
47804;SDS011;33568;45.286;9.900;2023-10-08T12:22:22;16.05;;;9.73;;
47804;SDS011;33568;45.286;9.900;2023-10-08T12:25:06;14.73;;;9.43;;
47804;SDS011;33568;45.286;9.900;2023-10-08T12:27:33;19.02;;;9.40;;
47804;SDS011;33568;45.286;9.900;2023-10-08T12:29:59;21.17;;;9.73;;
47804;SDS011;33568;45.286;9.900;2023-10-08T12:32:26;19.75;;;9.55;;
47804;SDS011;33568;45.286;9.900;2023-10-08T12:34:53;24.05;;;9.90;;
47804;SDS011;33568;45.286;9.900;2023-10-08T12:37:19;16.45;;;8.90;;
47804;SDS011;33568;45.286;9.900;2023-10-08T12:42:38;19.30;;;10.45;;
47804;SDS011;33568;45.286;9.900;2023-10-08T12:45:05;28.05;;;10.23;;
47804;SDS011;33568;45.286;9.900;2023-10-08T12:47:56;22.55;;;10.20;;
47804;SDS011;33568;45.286;9.900;2023-10-08T12:50:24;20.00;;;9.63;;
47804;SDS011;33568;45.286;9.900;2023-10-08T12:56:25;21.27;;;9.05;;
47804;SDS011;33568;45.286;9.900;2023-10-08T12:59:11;22.87;;;9.40;;
47804;SDS011;33568;45.286;9.900;2023-10-08T13:01:46;16.33;;;9.17;;
47804;SDS011;33568;45.286;9.900;2023-10-08T13:04:17;24.10;;;10.00;;
47804;SDS011;33568;45.286;9.900;2023-10-08T13:07:02;19.47;;;9.60;;
47804;SDS011;33568;45.286;9.900;2023-10-08T13:09:30;18.60;;;9.43;;
47804;SDS011;33568;45.286;9.900;2023-10-08T13:11:57;16.55;;;9.27;;
47804;SDS011;33568;45.286;9.900;2023-10-08T13:14:25;23.15;;;9.57;;
47804;SDS011;33568;45.286;9.900;2023-10-08T13:17:28;19.27;;;9.77;;
47804;SDS011;33568;45.286;9.900;2023-10-08T13:19:55;21.42;;;8.82;;
47804;SDS011;33568;45.286;9.900;2023-10-08T13:25:12;17.75;;;8.73;;
47804;SDS011;33568;45.286;9.900;2023-10-08T13:27:39;22.60;;;8.77;;
47804;SDS011;33568;45.286;9.900;2023-10-08T13:30:06;29.08;;;8.73;;
47804;SDS011;33568;45.286;9.900;2023-10-08T13:35:19;16.83;;;7.50;;
47804;SDS011;33568;45.286;9.900;2023-10-08T13:37:46;16.63;;;7.07;;
47804;SDS011;33568;45.286;9.900;2023-10-08T13:40:14;26.17;;;7.05;;
47804;SDS011;33568;45.286;9.900;2023-10-08T13:42:42;18.77;;;6.72;;
47804;SDS011;33568;45.286;9.900;2023-10-08T13:45:09;17.50;;;7.30;;
47804;SDS011;33568;45.286;9.900;2023-10-08T13:47:54;19.40;;;7.13;;
47804;SDS011;33568;45.286;9.900;2023-10-08T13:53:07;18.92;;;6.00;;
47804;SDS011;33568;45.286;9.900;2023-10-08T13:55:34;21.17;;;6.32;;
47804;SDS011;33568;45.286;9.900;2023-10-08T14:01:04;14.23;;;5.60;;
47804;SDS011;33568;45.286;9.900;2023-10-08T14:04:21;19.55;;;5.65;;
47804;SDS011;33568;45.286;9.900;2023-10-08T14:07:32;27.02;;;5.60;;
47804;SDS011;33568;45.286;9.900;2023-10-08T14:10:01;25.15;;;6.30;;
47804;SDS011;33568;45.286;9.900;2023-10-08T14:12:52;24.25;;;6.53;;
47804;SDS011;33568;45.286;9.900;2023-10-08T14:18:23;21.50;;;5.80;;
47804;SDS011;33568;45.286;9.900;2023-10-08T14:24:48;10.52;;;5.20;;
47804;SDS011;33568;45.286;9.900;2023-10-08T14:30:17;21.45;;;5.53;;
47804;SDS011;33568;45.286;9.900;2023-10-08T14:32:47;15.65;;;5.82;;
47804;SDS011;33568;45.286;9.900;2023-10-08T14:35:14;17.00;;;6.32;;
47804;SDS011;33568;45.286;9.900;2023-10-08T14:37:59;15.30;;;6.75;;
47804;SDS011;33568;45.286;9.900;2023-10-08T14:40:46;23.17;;;5.67;;
47804;SDS011;33568;45.286;9.900;2023-10-08T14:43:31;20.55;;;6.93;;
47804;SDS011;33568;45.286;9.900;2023-10-08T14:46:03;14.85;;;5.13;;
47804;SDS011;33568;45.286;9.900;2023-10-08T14:48:32;24.60;;;7.00;;
47804;SDS011;33568;45.286;9.900;2023-10-08T14:51:03;19.10;;;5.70;;
47804;SDS011;33568;45.286;9.900;2023-10-08T14:53:32;14.88;;;5.65;;
47804;SDS011;33568;45.286;9.900;2023-10-08T14:56:04;13.98;;;6.10;;
47804;SDS011;33568;45.286;9.900;2023-10-08T14:58:31;22.48;;;6.25;;
47804;SDS011;33568;45.286;9.900;2023-10-08T15:00:58;19.45;;;5.35;;
47804;SDS011;33568;45.286;9.900;2023-10-08T15:03:43;15.27;;;6.10;;
47804;SDS011;33568;45.286;9.900;2023-10-08T15:09:15;11.40;;;5.63;;
47804;SDS011;33568;45.286;9.900;2023-10-08T15:12:01;21.58;;;6.78;;
47804;SDS011;33568;45.286;9.900;2023-10-08T15:14:27;16.30;;;5.60;;
47804;SDS011;33568;45.286;9.900;2023-10-08T15:17:12;17.27;;;6.15;;
47804;SDS011;33568;45.286;9.900;2023-10-08T15:19:39;17.27;;;5.90;;
47804;SDS011;33568;45.286;9.900;2023-10-08T15:22:24;18.83;;;6.35;;
47804;SDS011;33568;45.286;9.900;2023-10-08T15:25:14;15.30;;;6.13;;
47804;SDS011;33568;45.286;9.900;2023-10-08T15:27:45;15.35;;;5.70;;
47804;SDS011;33568;45.286;9.900;2023-10-08T15:30:18;13.00;;;5.72;;
47804;SDS011;33568;45.286;9.900;2023-10-08T15:32:46;16.08;;;5.72;;
47804;SDS011;33568;45.286;9.900;2023-10-08T15:35:16;11.32;;;5.65;;
47804;SDS011;33568;45.286;9.900;2023-10-08T15:37:49;16.73;;;6.50;;
47804;SDS011;33568;45.286;9.900;2023-10-08T15:40:34;14.05;;;5.65;;
47804;SDS011;33568;45.286;9.900;2023-10-08T15:43:00;20.08;;;6.28;;
47804;SDS011;33568;45.286;9.900;2023-10-08T15:45:27;14.88;;;6.28;;
47804;SDS011;33568;45.286;9.900;2023-10-08T15:47:55;14.13;;;6.30;;
47804;SDS011;33568;45.286;9.900;2023-10-08T15:50:40;13.63;;;6.20;;
47804;SDS011;33568;45.286;9.900;2023-10-08T15:53:06;10.77;;;5.57;;
47804;SDS011;33568;45.286;9.900;2023-10-08T15:55:33;14.07;;;6.15;;
47804;SDS011;33568;45.286;9.900;2023-10-08T15:57:59;14.60;;;6.10;;
47804;SDS011;33568;45.286;9.900;2023-10-08T16:00:26;21.75;;;6.72;;
47804;SDS011;33568;45.286;9.900;2023-10-08T16:02:53;15.35;;;5.75;;
47804;SDS011;33568;45.286;9.900;2023-10-08T16:05:19;12.18;;;6.05;;
47804;SDS011;33568;45.286;9.900;2023-10-08T16:11:07;16.42;;;6.03;;
47804;SDS011;33568;45.286;9.900;2023-10-08T16:13:34;15.90;;;7.47;;
47804;SDS011;33568;45.286;9.900;2023-10-08T16:16:00;14.63;;;6.25;;
47804;SDS011;33568;45.286;9.900;2023-10-08T16:18:45;18.15;;;6.70;;
47804;SDS011;33568;45.286;9.900;2023-10-08T16:21:49;30.02;;;7.35;;
47804;SDS011;33568;45.286;9.900;2023-10-08T16:24:17;20.20;;;6.80;;
47804;SDS011;33568;45.286;9.900;2023-10-08T16:26:43;19.50;;;7.53;;
47804;SDS011;33568;45.286;9.900;2023-10-08T16:29:10;13.52;;;7.30;;
47804;SDS011;33568;45.286;9.900;2023-10-08T16:31:39;16.65;;;7.03;;
47804;SDS011;33568;45.286;9.900;2023-10-08T16:34:09;14.75;;;7.03;;
47804;SDS011;33568;45.286;9.900;2023-10-08T16:36:54;16.75;;;7.50;;
47804;SDS011;33568;45.286;9.900;2023-10-08T16:39:21;14.68;;;7.57;;
47804;SDS011;33568;45.286;9.900;2023-10-08T16:48:16;14.30;;;7.10;;
47804;SDS011;33568;45.286;9.900;2023-10-08T16:50:42;23.25;;;6.95;;
47804;SDS011;33568;45.286;9.900;2023-10-08T16:53:09;15.40;;;7.57;;
47804;SDS011;33568;45.286;9.900;2023-10-08T16:55:55;22.33;;;7.20;;
47804;SDS011;33568;45.286;9.900;2023-10-08T16:58:58;15.02;;;6.70;;
47804;SDS011;33568;45.286;9.900;2023-10-08T17:01:24;16.67;;;6.68;;
47804;SDS011;33568;45.286;9.900;2023-10-08T17:03:51;11.98;;;6.80;;
47804;SDS011;33568;45.286;9.900;2023-10-08T17:06:18;15.75;;;7.35;;
47804;SDS011;33568;45.286;9.900;2023-10-08T17:09:03;12.27;;;7.03;;
47804;SDS011;33568;45.286;9.900;2023-10-08T17:11:57;13.75;;;6.63;;
47804;SDS011;33568;45.286;9.900;2023-10-08T17:14:24;11.10;;;6.82;;
47804;SDS011;33568;45.286;9.900;2023-10-08T17:16:50;13.65;;;6.97;;
47804;SDS011;33568;45.286;9.900;2023-10-08T17:22:02;13.35;;;6.75;;
47804;SDS011;33568;45.286;9.900;2023-10-08T17:27:33;11.27;;;6.82;;
47804;SDS011;33568;45.286;9.900;2023-10-08T17:30:01;16.85;;;8.82;;
47804;SDS011;33568;45.286;9.900;2023-10-08T17:33:05;12.23;;;7.00;;